createdAt,value
2023-02-03T00:02:32.430Z,1.30
2023-02-03T00:06:37.928Z,1.40
2023-02-03T00:10:43.146Z,2.00
2023-02-03T00:14:48.359Z,2.30
2023-02-03T00:18:53.553Z,1.90
2023-02-03T00:23:05.433Z,2.00
2023-02-03T00:27:10.613Z,1.60
2023-02-03T00:31:19.820Z,1.90
2023-02-03T00:35:25.112Z,0.80
2023-02-03T00:39:30.288Z,0.40
2023-02-03T00:43:35.603Z,1.70
2023-02-03T00:47:40.850Z,1.70
2023-02-03T00:51:46.036Z,1.40
2023-02-03T00:55:52.218Z,1.70
2023-02-03T00:59:58.223Z,1.40
2023-02-03T01:04:03.789Z,1.20
2023-02-03T01:08:08.982Z,1.80
2023-02-03T01:12:14.354Z,1.60
2023-02-03T01:16:20.628Z,1.10
2023-02-03T01:20:26.278Z,1.60
2023-02-03T01:24:32.045Z,1.30
2023-02-03T01:28:37.263Z,1.40
2023-02-03T01:32:42.478Z,1.60
2023-02-03T01:36:47.878Z,1.90
2023-02-03T01:40:53.078Z,1.20
2023-02-03T01:44:58.618Z,1.40
2023-02-03T01:49:08.243Z,1.20
2023-02-03T01:53:13.729Z,1.90
2023-02-03T01:57:20.989Z,1.10
2023-02-03T02:01:26.285Z,1.60
2023-02-03T02:05:33.811Z,1.70
2023-02-03T02:09:39.079Z,0.80
2023-02-03T02:13:44.636Z,1.10
2023-02-03T02:17:58.259Z,1.30
2023-02-03T02:22:07.650Z,1.00
2023-02-03T02:26:25.071Z,1.20
2023-02-03T02:30:38.795Z,0.90
2023-02-03T02:34:51.569Z,1.00
2023-02-03T02:39:00.326Z,1.20
2023-02-03T02:43:09.213Z,0.80
2023-02-03T02:47:17.915Z,1.40
2023-02-03T02:51:24.044Z,2.00
2023-02-03T02:55:31.808Z,1.30
2023-02-03T02:59:37.204Z,1.50
2023-02-03T03:03:45.109Z,1.40
2023-02-03T03:07:54.948Z,1.20
2023-02-03T03:12:03.188Z,1.20
2023-02-03T03:16:09.788Z,1.50
2023-02-03T03:20:17.211Z,1.40
2023-02-03T03:24:27.890Z,1.30
2023-02-03T03:28:36.670Z,1.30
2023-02-03T03:32:42.004Z,1.20
2023-02-03T03:36:49.082Z,1.40
2023-02-03T03:40:56.097Z,1.50
2023-02-03T03:45:03.411Z,1.20
2023-02-03T03:49:09.735Z,1.10
2023-02-03T03:53:16.478Z,1.20
2023-02-03T03:57:23.914Z,1.60
2023-02-03T04:01:30.420Z,1.40
2023-02-03T04:09:40.602Z,1.30
2023-02-03T04:13:45.921Z,1.30
2023-02-03T04:17:51.169Z,1.40
2023-02-03T04:21:56.421Z,1.50
2023-02-03T04:26:03.473Z,1.40
2023-02-03T04:30:09.877Z,1.50
2023-02-03T04:34:15.044Z,1.50
2023-02-03T04:38:20.282Z,1.40
2023-02-03T04:42:25.941Z,1.50
2023-02-03T04:46:31.131Z,1.60
2023-02-03T04:50:36.448Z,1.70
2023-02-03T04:54:41.742Z,1.50
2023-02-03T04:58:47.042Z,1.80
2023-02-03T05:02:52.650Z,1.50
2023-02-03T05:06:57.921Z,1.80
2023-02-03T05:11:04.251Z,1.90
2023-02-03T05:15:11.299Z,1.70
2023-02-03T05:19:16.556Z,1.80
2023-02-03T05:23:22.188Z,1.90
2023-02-03T05:27:27.467Z,2.30
2023-02-03T05:31:33.801Z,2.40
2023-02-03T05:35:39.237Z,2.70
2023-02-03T05:39:44.694Z,3.00
2023-02-03T05:43:49.993Z,2.00
2023-02-03T05:47:55.291Z,2.30
2023-02-03T05:52:00.634Z,3.10
2023-02-03T05:56:06.362Z,2.40
2023-02-03T06:00:14.866Z,2.60
2023-02-03T06:04:20.201Z,4.30
2023-02-03T06:08:28.813Z,4.30
2023-02-03T06:12:34.165Z,4.30
2023-02-03T06:16:39.457Z,4.30
2023-02-03T06:20:44.738Z,3.50
2023-02-03T06:24:50.665Z,2.70
2023-02-03T06:28:55.873Z,3.70
2023-02-03T06:33:01.089Z,3.10
2023-02-03T06:37:06.526Z,3.60
2023-02-03T06:41:11.724Z,2.80
2023-02-03T06:45:17.141Z,3.10
2023-02-03T06:49:22.499Z,3.40
2023-02-03T06:53:27.718Z,4.00
2023-02-03T06:57:33.035Z,3.70
2023-02-03T07:01:38.278Z,3.10
2023-02-03T07:05:43.699Z,3.80
2023-02-03T07:09:49.005Z,3.30
2023-02-03T07:13:55.012Z,2.80
2023-02-03T07:18:00.985Z,2.70
2023-02-03T07:22:06.434Z,2.50
2023-02-03T07:26:12.260Z,2.90
2023-02-03T07:30:17.926Z,2.50
2023-02-03T07:34:23.212Z,2.20
2023-02-03T07:38:29.166Z,2.30
2023-02-03T07:42:34.350Z,2.90
2023-02-03T07:46:44.848Z,2.90
2023-02-03T07:50:51.024Z,2.50
2023-02-03T07:54:56.373Z,2.80
2023-02-03T07:59:02.120Z,3.30
2023-02-03T08:03:07.422Z,2.60
2023-02-03T08:07:12.818Z,2.70
2023-02-03T08:11:18.399Z,2.20
2023-02-03T08:15:23.738Z,3.10
2023-02-03T08:19:29.277Z,3.00
2023-02-03T08:23:34.420Z,3.40
2023-02-03T08:27:40.014Z,2.30
2023-02-03T08:31:45.666Z,2.50
2023-02-03T08:35:51.791Z,2.50
2023-02-03T08:39:57.088Z,2.40
2023-02-03T08:44:02.525Z,2.90
2023-02-03T08:48:07.973Z,2.30
2023-02-03T08:52:13.735Z,2.10
2023-02-03T08:56:19.425Z,2.10
2023-02-03T09:00:25.523Z,2.50
2023-02-03T09:04:33.501Z,0.90
2023-02-03T09:08:39.070Z,2.10
2023-02-03T09:12:44.813Z,2.00
2023-02-03T09:16:50.188Z,2.10
2023-02-03T09:21:01.119Z,2.10
2023-02-03T09:25:07.115Z,2.10
2023-02-03T09:29:12.643Z,1.80
2023-02-03T09:33:17.991Z,1.90
2023-02-03T09:37:23.343Z,1.80
2023-02-03T09:41:36.475Z,1.60
2023-02-03T09:45:41.907Z,1.60
2023-02-03T09:49:50.555Z,1.60
2023-02-03T09:54:01.753Z,1.40
2023-02-03T09:58:08.145Z,1.60
2023-02-03T10:02:21.203Z,1.60
2023-02-03T10:06:32.751Z,1.90
2023-02-03T10:10:40.156Z,1.40
2023-02-03T10:15:06.191Z,1.50
2023-02-03T10:19:14.237Z,1.20
2023-02-03T10:23:21.674Z,1.80
2023-02-03T10:27:27.662Z,1.60
2023-02-03T10:31:36.427Z,1.70
2023-02-03T10:35:48.197Z,1.30
2023-02-03T10:39:54.264Z,1.20
2023-02-03T10:43:59.770Z,1.60
2023-02-03T10:48:05.532Z,1.50
2023-02-03T10:52:25.402Z,1.30
2023-02-03T10:56:33.407Z,1.00
2023-02-03T11:00:38.767Z,1.40
2023-02-03T11:04:44.051Z,1.30
2023-02-03T11:08:49.971Z,1.20
2023-02-03T11:17:06.817Z,1.60
2023-02-03T11:21:13.701Z,1.70
2023-02-03T11:25:20.192Z,1.50
2023-02-03T11:29:28.508Z,1.40
2023-02-03T11:33:34.467Z,0.80
2023-02-03T11:41:43.425Z,1.30
2023-02-03T11:45:49.818Z,1.60
2023-02-03T11:50:04.992Z,2.10
2023-02-03T11:54:20.488Z,1.50
2023-02-03T11:58:42.413Z,1.30
2023-02-03T12:02:58.158Z,0.80
2023-02-03T12:07:20.157Z,1.20
2023-02-03T12:11:31.139Z,1.60
2023-02-03T12:15:41.807Z,1.40
2023-02-03T12:19:54.084Z,1.30
2023-02-03T12:24:02.970Z,1.10
2023-02-03T12:28:32.289Z,1.40
2023-02-03T12:32:41.408Z,1.70
2023-02-03T12:36:49.332Z,0.60
2023-02-03T12:40:56.715Z,2.20
2023-02-03T12:45:03.611Z,1.90
2023-02-03T12:49:13.552Z,1.70
2023-02-03T12:53:21.780Z,1.50
2023-02-03T12:57:30.114Z,1.60
2023-02-03T13:01:37.086Z,1.50
2023-02-03T13:05:46.332Z,1.50
2023-02-03T13:09:57.822Z,1.60
2023-02-03T13:14:06.967Z,1.80
2023-02-03T13:18:17.026Z,2.10
2023-02-03T13:22:23.981Z,1.90
2023-02-03T13:26:48.725Z,1.90
2023-02-03T13:31:03.276Z,1.80
2023-02-03T13:35:21.685Z,2.10
2023-02-03T13:39:35.489Z,1.60
2023-02-03T13:43:42.788Z,1.20
2023-02-03T13:47:51.934Z,1.60
2023-02-03T13:51:57.490Z,1.40
2023-02-03T13:56:03.683Z,1.90
2023-02-03T14:04:36.457Z,1.70
2023-02-03T14:08:49.613Z,1.70
2023-02-03T14:12:59.834Z,1.70
2023-02-03T14:17:05.295Z,1.00
2023-02-03T14:21:16.008Z,2.30
2023-02-03T14:25:22.582Z,2.10
2023-02-03T14:29:29.682Z,2.10
2023-02-03T14:33:51.418Z,1.70
2023-02-03T14:37:58.611Z,1.70
2023-02-03T14:42:06.106Z,0.60
2023-02-03T14:46:23.143Z,1.10
2023-02-03T14:50:34.980Z,1.10
2023-02-03T14:54:47.467Z,2.30
2023-02-03T14:58:55.312Z,1.20
2023-02-03T15:03:20.203Z,1.10
2023-02-03T15:07:45.005Z,1.10
2023-02-03T15:11:50.469Z,2.20
2023-02-03T15:15:57.465Z,1.50
2023-02-03T15:20:02.900Z,2.30
2023-02-03T15:24:14.501Z,0.80
2023-02-03T15:28:22.112Z,1.70
2023-02-03T15:32:30.221Z,1.30
2023-02-03T15:36:39.665Z,1.10
2023-02-03T15:40:46.242Z,2.50
2023-02-03T15:44:54.361Z,2.60
2023-02-03T15:49:03.425Z,2.40
2023-02-03T15:53:11.613Z,2.30
2023-02-03T15:57:19.942Z,1.00
2023-02-03T16:01:28.295Z,1.20
2023-02-03T16:05:34.543Z,1.50
2023-02-03T16:09:42.276Z,1.70
2023-02-03T16:13:47.957Z,2.30
2023-02-03T16:17:58.416Z,1.90
2023-02-03T16:22:03.608Z,3.90
2023-02-03T16:26:19.282Z,2.00
2023-02-03T16:30:43.047Z,3.30
2023-02-03T16:35:06.360Z,2.60
2023-02-03T16:39:30.549Z,1.80
2023-02-03T16:43:53.513Z,1.80
2023-02-03T16:48:16.723Z,3.30
2023-02-03T16:52:22.040Z,2.70
2023-02-03T16:56:27.596Z,1.80
2023-02-03T17:00:33.017Z,2.90
2023-02-03T17:04:38.400Z,2.00
2023-02-03T17:08:43.664Z,2.30
2023-02-03T17:12:49.423Z,3.20
2023-02-03T17:16:55.119Z,3.80
2023-02-03T17:21:05.335Z,1.90
2023-02-03T17:25:10.788Z,2.20
2023-02-03T17:29:16.136Z,1.40
2023-02-03T17:33:21.492Z,2.80
2023-02-03T17:37:26.837Z,2.60
2023-02-03T17:54:41.704Z,2.20
2023-02-03T17:58:47.760Z,2.20
2023-02-03T18:02:53.217Z,4.20
2023-02-03T18:06:58.857Z,2.00
2023-02-03T18:11:04.685Z,3.00
2023-02-03T18:15:10.784Z,2.90
2023-02-03T18:19:17.054Z,3.80
2023-02-03T18:23:22.368Z,4.80
2023-02-03T18:27:27.724Z,3.90
2023-02-03T18:31:33.906Z,2.60
2023-02-03T18:35:39.467Z,2.70
2023-02-03T18:39:44.820Z,5.00
2023-02-03T18:43:50.384Z,1.30
2023-02-03T18:47:55.845Z,2.50
2023-02-03T18:52:01.297Z,6.50
2023-02-03T18:56:08.949Z,5.70
2023-02-03T19:00:15.655Z,5.00
2023-02-03T19:04:21.150Z,3.80
2023-02-03T19:08:26.692Z,5.20
2023-02-03T19:12:32.039Z,4.70
2023-02-03T19:16:37.438Z,3.30
2023-02-03T19:20:43.370Z,3.10
2023-02-03T19:24:49.026Z,3.40
2023-02-03T19:28:55.974Z,3.20
2023-02-03T19:33:01.875Z,3.70
2023-02-03T19:37:08.005Z,4.10
2023-02-03T19:41:13.732Z,4.80
2023-02-03T19:45:19.362Z,3.00
2023-02-03T19:49:25.632Z,4.80
2023-02-03T19:53:31.094Z,4.60
2023-02-03T19:57:36.553Z,5.00
2023-02-03T20:01:42.569Z,5.40
2023-02-03T20:05:48.537Z,4.30
2023-02-03T20:09:53.812Z,5.40
2023-02-03T20:13:59.281Z,4.80
2023-02-03T20:18:06.677Z,3.60
2023-02-03T20:22:12.032Z,5.20
2023-02-03T20:26:17.380Z,5.50
2023-02-03T20:30:22.733Z,5.20
2023-02-03T20:34:28.526Z,5.50
2023-02-03T20:38:34.563Z,4.40
2023-02-03T20:42:40.317Z,4.20
2023-02-03T20:46:46.050Z,3.30
2023-02-03T20:50:51.686Z,5.40
2023-02-03T20:54:56.983Z,3.10
2023-02-03T20:59:02.644Z,3.60
2023-02-03T21:03:33.190Z,5.20
2023-02-03T21:07:39.461Z,4.90
2023-02-03T21:15:49.231Z,4.80
2023-02-03T21:19:55.563Z,5.80
2023-02-03T21:28:04.857Z,2.00
2023-02-03T21:32:15.157Z,6.30
2023-02-03T21:36:21.323Z,5.40
2023-02-03T21:40:28.366Z,5.90
2023-02-03T21:44:35.632Z,5.50
2023-02-03T21:48:41.681Z,3.20
2023-02-03T21:52:46.949Z,5.70
2023-02-03T21:56:52.389Z,2.50
2023-02-03T22:00:58.172Z,4.60
2023-02-03T22:05:03.906Z,5.40
2023-02-03T22:09:12.020Z,2.60
2023-02-03T22:13:17.329Z,4.20
2023-02-03T22:17:22.550Z,2.50
2023-02-03T22:21:27.878Z,1.30
2023-02-03T22:25:33.220Z,3.80
2023-02-03T22:29:38.674Z,3.00
2023-02-03T22:33:44.308Z,3.90
2023-02-03T22:37:50.503Z,1.80
2023-02-03T22:41:55.746Z,1.10
2023-02-03T22:46:02.071Z,2.40
2023-02-03T22:50:09.138Z,5.00
2023-02-03T22:54:14.462Z,3.10
2023-02-03T22:58:19.708Z,3.60
2023-02-03T23:02:24.962Z,3.20
2023-02-03T23:06:30.614Z,4.30
2023-02-03T23:10:35.979Z,2.50
2023-02-03T23:14:41.321Z,3.00
2023-02-03T23:18:46.774Z,2.10
2023-02-03T23:22:52.242Z,3.40
2023-02-03T23:26:57.686Z,3.00
2023-02-03T23:31:04.000Z,2.90
2023-02-03T23:35:27.746Z,3.80
2023-02-03T23:39:33.090Z,3.00
2023-02-03T23:43:38.339Z,2.70
2023-02-03T23:47:44.624Z,2.80
2023-02-03T23:51:49.880Z,3.20
2023-02-03T23:55:55.119Z,1.90
